Time;durP1;ratioP1;P1;durP2;ratioP2;P2;SDS_P1;SDS_P2;PMS_P1;PMS_P2;Temp;Humidity;BMP_temperature;BMP_pressure;BME280_temperature;BME280_humidity;BME280_pressure;Samples;Min_cycle;Max_cycle;Signal;HPM_P1;HPM_P2
2024/03/02 00:00:08;;;;;;;0.40;0.17;;;21.90;43.50;;;;;;5074253;28;20092;-40
2024/03/02 00:02:44;;;;;;;0.20;0.10;;;21.90;43.60;;;;;;5069057;28;20850;-40
2024/03/02 00:05:14;;;;;;;0.38;0.10;;;21.90;43.50;;;;;;5053666;28;20047;-41
2024/03/02 00:07:42;;;;;;;0.10;0.10;;;21.90;43.60;;;;;;5056599;28;20063;-40
2024/03/02 00:10:12;;;;;;;0.20;0.20;;;21.80;44.10;;;;;;5070152;28;20140;-39
2024/03/02 00:12:39;;;;;;;0.10;0.10;;;21.80;43.60;;;;;;5069905;28;20076;-40
2024/03/02 00:15:07;;;;;;;0.20;0.10;;;21.90;43.60;;;;;;5074356;28;20385;-40
2024/03/02 00:17:33;;;;;;;0.15;0.10;;;21.90;43.60;;;;;;5054661;28;20064;-40
2024/03/02 00:20:00;;;;;;;0.03;0.03;;;21.90;43.60;;;;;;5069567;28;20083;-41
2024/03/02 00:22:26;;;;;;;0.20;0.10;;;21.90;43.70;;;;;;5070754;28;20036;-44
2024/03/02 00:24:53;;;;;;;0.13;0.10;;;21.90;43.70;;;;;;5072913;28;20048;-41
2024/03/02 00:27:19;;;;;;;0.10;0.10;;;21.80;43.60;;;;;;5072441;28;20104;-40
2024/03/02 00:29:45;;;;;;;0.10;0.10;;;21.80;43.60;;;;;;5051790;28;20032;-40
2024/03/02 00:32:14;;;;;;;0.28;0.20;;;21.90;43.70;;;;;;5072332;28;20040;-41
2024/03/02 00:34:40;;;;;;;0.10;0.10;;;21.90;43.70;;;;;;5069395;28;20055;-39
2024/03/02 00:37:06;;;;;;;0.32;0.13;;;21.90;43.70;;;;;;5076077;28;20029;-38
2024/03/02 00:39:32;;;;;;;1.27;0.20;;;21.90;43.70;;;;;;5051670;28;20059;-40
2024/03/02 00:41:58;;;;;;;0.10;0.10;;;21.80;43.70;;;;;;5071499;28;20049;-42
2024/03/02 00:44:34;;;;;;;0.10;0.10;;;21.80;43.70;;;;;;5069363;28;20043;-39
2024/03/02 00:47:00;;;;;;;0.30;0.20;;;21.90;43.80;;;;;;5080025;28;20512;-40
2024/03/02 00:49:28;;;;;;;0.20;0.20;;;21.90;43.80;;;;;;5083115;28;20040;-41
2024/03/02 00:51:54;;;;;;;0.10;0.10;;;21.90;43.70;;;;;;5076188;28;20385;-42
2024/03/02 00:54:27;;;;;;;0.10;0.10;;;21.90;43.80;;;;;;5064722;28;20068;-41
2024/03/02 00:56:55;;;;;;;0.30;0.20;;;21.90;43.80;;;;;;5059705;28;20024;-42
2024/03/02 00:59:22;;;;;;;0.38;0.20;;;21.80;43.70;;;;;;5078457;28;20059;-40
2024/03/02 01:01:49;;;;;;;;;;;21.90;43.80;;;;;;5074132;28;20024;-41
2024/03/02 01:04:15;;;;;;;0.98;0.20;;;21.90;43.80;;;;;;5082515;28;19920;-41
2024/03/02 01:06:43;;;;;;;0.65;0.20;;;21.90;43.70;;;;;;5084363;28;20699;-42
2024/03/02 01:09:09;;;;;;;1.75;0.20;;;21.90;43.70;;;;;;5085633;28;20131;-41
2024/03/02 01:11:35;;;;;;;0.95;0.17;;;21.80;43.50;;;;;;5084190;28;20078;-41
2024/03/02 01:14:01;;;;;;;1.38;0.50;;;21.80;43.50;;;;;;5075436;28;20059;-40
2024/03/02 01:16:27;;;;;;;0.10;0.10;;;21.80;43.40;;;;;;5075298;28;20064;-40
2024/03/02 01:18:54;;;;;;;0.30;0.20;;;21.80;43.30;;;;;;5083349;28;20615;-41
2024/03/02 01:21:20;;;;;;;0.17;0.17;;;21.80;43.20;;;;;;5082551;28;20078;-41
2024/03/02 01:23:46;;;;;;;0.10;0.10;;;21.80;43.20;;;;;;5083269;28;20047;-42
2024/03/02 01:26:12;;;;;;;1.83;0.20;;;21.80;43.30;;;;;;5083653;28;20028;-41
2024/03/02 01:28:38;;;;;;;0.98;0.20;;;21.80;43.40;;;;;;5082989;28;20024;-41
2024/03/02 01:31:04;;;;;;;1.40;0.20;;;21.80;43.40;;;;;;5078495;28;20037;-39
2024/03/02 01:33:31;;;;;;;2.60;0.25;;;21.90;43.50;;;;;;5082106;28;20673;-42
2024/03/02 01:35:57;;;;;;;2.58;0.30;;;21.80;43.50;;;;;;5068529;28;20419;-41
2024/03/02 01:38:23;;;;;;;1.25;0.20;;;21.80;43.50;;;;;;5080214;28;20036;-40
2024/03/02 01:40:49;;;;;;;0.50;0.22;;;21.80;43.60;;;;;;5082668;28;20037;-40
2024/03/02 01:43:15;;;;;;;0.80;0.20;;;21.80;43.60;;;;;;5063709;28;20047;-42
2024/03/02 01:45:42;;;;;;;1.00;0.20;;;21.80;43.60;;;;;;5081272;28;20396;-40
2024/03/02 01:48:08;;;;;;;0.45;0.20;;;21.80;43.60;;;;;;5082425;28;20025;-39
2024/03/02 01:50:34;;;;;;;0.65;0.10;;;21.80;43.60;;;;;;5081713;28;20100;-40
2024/03/02 01:53:01;;;;;;;0.38;0.20;;;21.80;43.60;;;;;;5082195;28;20028;-39
2024/03/02 01:55:30;;;;;;;;;;;21.80;43.60;;;;;;5082524;28;20084;-40
2024/03/02 01:57:56;;;;;;;0.45;0.20;;;21.80;43.70;;;;;;5082571;28;19916;-38
2024/03/02 02:00:24;;;;;;;0.45;0.20;;;21.80;43.70;;;;;;5074104;28;20053;-40
2024/03/02 02:02:51;;;;;;;0.25;0.20;;;21.80;43.70;;;;;;5079064;28;20045;-41
2024/03/02 02:05:17;;;;;;;0.30;0.10;;;21.80;43.60;;;;;;5082035;28;20061;-40
2024/03/02 02:07:43;;;;;;;0.90;0.10;;;21.80;43.60;;;;;;5058950;28;20103;-39
2024/03/02 02:10:10;;;;;;;0.20;0.10;;;21.80;43.60;;;;;;5081176;28;20040;-41
2024/03/02 02:12:36;;;;;;;0.65;0.20;;;21.80;43.70;;;;;;5081478;28;20033;-37
2024/03/02 02:15:04;;;;;;;0.22;0.17;;;21.70;43.70;;;;;;5082329;28;20036;-39
2024/03/02 02:17:30;;;;;;;0.32;0.20;;;21.80;43.70;;;;;;5080758;28;20077;-37
2024/03/02 02:19:56;;;;;;;0.17;0.10;;;21.80;43.70;;;;;;5081726;28;20025;-39
2024/03/02 02:22:22;;;;;;;0.35;0.05;;;21.80;43.70;;;;;;5081447;28;20028;-41
2024/03/02 02:24:48;;;;;;;0.30;0.10;;;21.80;43.70;;;;;;5080535;28;20051;-37
2024/03/02 02:27:15;;;;;;;0.38;0.20;;;21.80;43.70;;;;;;5079000;28;20032;-39
2024/03/02 02:29:42;;;;;;;0.20;0.20;;;21.80;43.70;;;;;;5081898;28;20082;-40
2024/03/02 02:32:08;;;;;;;0.10;0.10;;;21.80;43.80;;;;;;5081417;28;20040;-40
2024/03/02 02:34:34;;;;;;;0.20;0.10;;;21.80;43.80;;;;;;5081392;28;20028;-37
2024/03/02 02:37:00;;;;;;;0.20;0.10;;;21.80;43.80;;;;;;5078494;28;20041;-39
2024/03/02 02:39:26;;;;;;;0.20;0.20;;;21.80;43.80;;;;;;5081270;28;20036;-39
2024/03/02 02:41:53;;;;;;;0.08;0.05;;;21.80;43.80;;;;;;5081134;28;20059;-39
2024/03/02 02:44:19;;;;;;;0.40;0.10;;;21.80;43.90;;;;;;5077209;28;20036;-39
2024/03/02 02:46:45;;;;;;;0.65;0.30;;;21.80;43.90;;;;;;5082262;28;20024;-41
2024/03/02 02:49:11;;;;;;;0.20;0.15;;;21.80;43.90;;;;;;5074036;28;20039;-39
2024/03/02 02:51:37;;;;;;;0.30;0.20;;;21.80;43.90;;;;;;5074802;28;20485;-44
2024/03/02 02:54:03;;;;;;;0.15;0.10;;;21.90;43.90;;;;;;5070555;28;20030;-40
2024/03/02 02:56:29;;;;;;;0.10;0.10;;;21.80;43.80;;;;;;5081417;28;20037;-39
2024/03/02 02:58:56;;;;;;;0.10;0.10;;;21.80;43.80;;;;;;5076007;28;20024;-38
2024/03/02 03:01:22;;;;;;;0.20;0.10;;;21.80;43.90;;;;;;5078245;28;20029;-38
2024/03/02 03:03:48;;;;;;;0.10;0.10;;;21.80;43.90;;;;;;5078838;28;20036;-40
2024/03/02 03:06:14;;;;;;;0.22;0.15;;;21.80;43.90;;;;;;5078910;28;20033;-40
2024/03/02 03:08:40;;;;;;;0.10;0.10;;;21.90;43.90;;;;;;5081590;28;20059;-41
2024/03/02 03:11:06;;;;;;;0.20;0.20;;;21.90;43.90;;;;;;5081215;28;20043;-34
2024/03/02 03:13:33;;;;;;;0.15;0.15;;;21.80;43.90;;;;;;5081554;28;20029;-40
2024/03/02 03:15:59;;;;;;;0.20;0.20;;;21.80;43.90;;;;;;5081728;28;20041;-39
2024/03/02 03:18:26;;;;;;;0.28;0.10;;;21.80;43.90;;;;;;5080855;28;20033;-40
2024/03/02 03:20:52;;;;;;;0.77;0.20;;;21.80;43.90;;;;;;5081379;28;20388;-41
2024/03/02 03:23:18;;;;;;;0.90;0.20;;;21.80;43.90;;;;;;5061791;28;20101;-39
2024/03/02 03:25:44;;;;;;;1.65;0.20;;;21.90;43.90;;;;;;5081386;28;20056;-38
2024/03/02 03:28:10;;;;;;;0.65;0.25;;;21.80;43.90;;;;;;5081001;28;20025;-45
2024/03/02 03:30:59;;;;;;;0.20;0.20;;;21.80;43.90;;;;;;5078877;28;20040;-36
2024/03/02 03:33:25;;;;;;;1.00;0.13;;;21.80;43.90;;;;;;5015665;28;20190;-38
2024/03/02 03:35:52;;;;;;;0.30;0.20;;;21.80;43.90;;;;;;5014628;28;20041;-37
2024/03/02 03:38:19;;;;;;;0.10;0.10;;;21.80;43.90;;;;;;5018481;28;20038;-40
2024/03/02 03:40:45;;;;;;;0.32;0.10;;;21.90;43.90;;;;;;5018832;28;20053;-39
2024/03/02 03:43:11;;;;;;;0.10;0.10;;;21.90;43.90;;;;;;5018554;28;20029;-38
2024/03/02 03:45:37;;;;;;;1.88;0.20;;;21.80;43.90;;;;;;5019028;28;20133;-38
2024/03/02 03:48:03;;;;;;;0.15;0.15;;;21.80;43.90;;;;;;5018582;28;20411;-40
2024/03/02 03:50:30;;;;;;;0.43;0.13;;;21.80;43.90;;;;;;5017532;28;20177;-40
2024/03/02 03:52:56;;;;;;;0.35;0.13;;;21.80;43.90;;;;;;5009426;28;20609;-39
2024/03/02 03:55:22;;;;;;;1.55;0.20;;;21.80;43.90;;;;;;5018250;28;20030;-38
2024/03/02 03:57:48;;;;;;;0.13;0.13;;;21.80;43.90;;;;;;5017064;28;20036;-39
2024/03/02 04:00:15;;;;;;;0.13;0.10;;;21.80;44.00;;;;;;5015447;28;20105;-40
2024/03/02 04:02:41;;;;;;;0.20;0.20;;;21.80;44.00;;;;;;5018360;28;20053;-37
2024/03/02 04:05:10;;;;;;;0.20;0.20;;;21.80;44.00;;;;;;5014525;28;20046;-40
2024/03/02 04:07:40;;;;;;;0.45;0.20;;;21.80;44.00;;;;;;5014233;28;20543;-38
2024/03/02 04:10:10;;;;;;;0.73;0.20;;;21.80;44.00;;;;;;5035517;28;20044;-39
2024/03/02 04:12:36;;;;;;;0.20;0.20;;;21.80;44.00;;;;;;5073371;28;20530;-40
2024/03/02 04:15:06;;;;;;;0.20;0.20;;;21.80;44.00;;;;;;5082949;28;20132;-38
2024/03/02 04:17:33;;;;;;;2.05;0.20;;;21.80;44.00;;;;;;5065927;28;20033;-39
2024/03/02 04:20:00;;;;;;;1.75;0.30;;;21.80;44.10;;;;;;5084082;28;20028;-37
2024/03/02 04:22:27;;;;;;;0.45;0.30;;;21.80;44.10;;;;;;5084091;28;20024;-40
2024/03/02 04:24:53;;;;;;;0.22;0.20;;;21.80;44.10;;;;;;5077400;28;20037;-40
2024/03/02 04:27:19;;;;;;;0.73;0.20;;;21.80;44.00;;;;;;5076664;28;20062;-40
2024/03/02 04:29:45;;;;;;;0.25;0.20;;;21.80;44.00;;;;;;5084435;28;20060;-38
2024/03/02 04:32:12;;;;;;;0.20;0.20;;;21.80;44.00;;;;;;5081235;28;20048;-38
2024/03/02 04:34:38;;;;;;;0.15;0.15;;;21.80;44.00;;;;;;5079780;28;20028;-40
2024/03/02 04:37:04;;;;;;;0.20;0.20;;;21.70;44.00;;;;;;5069086;28;20028;-36
2024/03/02 04:39:30;;;;;;;0.43;0.30;;;21.80;44.10;;;;;;5076512;28;20028;-37
2024/03/02 04:41:58;;;;;;;0.50;0.30;;;21.80;44.10;;;;;;5083843;28;20096;-37
2024/03/02 04:44:24;;;;;;;0.20;0.20;;;21.80;44.00;;;;;;5083274;28;20489;-39
2024/03/02 04:46:50;;;;;;;0.30;0.20;;;21.80;44.10;;;;;;5084090;28;20032;-38
2024/03/02 04:49:16;;;;;;;0.20;0.20;;;21.80;44.10;;;;;;5076308;28;20036;-40
2024/03/02 04:51:42;;;;;;;0.20;0.20;;;21.70;44.00;;;;;;5084069;28;20090;-39
2024/03/02 04:54:08;;;;;;;0.25;0.20;;;21.80;44.10;;;;;;5083700;28;20110;-39
2024/03/02 04:56:44;;;;;;;0.20;0.20;;;21.80;44.60;;;;;;5083381;28;20032;-41
2024/03/02 04:59:10;;;;;;;0.45;0.20;;;21.80;44.10;;;;;;5083586;28;20033;-39
2024/03/02 05:01:37;;;;;;;0.20;0.20;;;21.80;44.10;;;;;;5083115;28;20029;-39
2024/03/02 05:04:03;;;;;;;0.20;0.20;;;21.80;44.10;;;;;;5079053;28;20313;-39
2024/03/02 05:06:29;;;;;;;0.45;0.40;;;21.80;44.10;;;;;;5082124;28;20251;-40
2024/03/02 05:08:56;;;;;;;0.68;0.30;;;21.70;44.10;;;;;;5063838;28;20056;-38
2024/03/02 05:14:17;;;;;;;0.88;0.40;;;21.80;44.10;;;;;;4981165;28;20047;-40
2024/03/02 05:16:43;;;;;;;0.20;0.20;;;21.80;44.10;;;;;;4981738;28;20030;-40
2024/03/02 05:19:09;;;;;;;0.75;0.30;;;21.80;44.10;;;;;;4981750;28;20096;-38
2024/03/02 05:21:35;;;;;;;0.20;0.20;;;21.80;44.20;;;;;;4981951;28;20133;-40
2024/03/02 05:24:02;;;;;;;0.40;0.30;;;21.70;44.10;;;;;;4980066;28;20055;-40
2024/03/02 05:26:28;;;;;;;0.73;0.30;;;21.80;44.30;;;;;;4981437;28;20042;-39
2024/03/02 05:28:55;;;;;;;0.40;0.30;;;21.80;44.30;;;;;;4981483;28;20030;-39
2024/03/02 05:31:21;;;;;;;0.40;0.30;;;21.80;44.30;;;;;;4979537;28;20073;-39
2024/03/02 05:33:47;;;;;;;0.30;0.30;;;21.80;44.30;;;;;;4978191;28;20053;-36
2024/03/02 05:36:14;;;;;;;1.00;0.40;;;21.80;44.30;;;;;;4974887;28;20074;-39
2024/03/02 05:38:40;;;;;;;5.55;1.00;;;21.80;44.50;;;;;;4978708;28;20035;-39
2024/03/02 05:41:06;;;;;;;4.72;1.25;;;21.80;45.60;;;;;;4978040;28;20882;-38
2024/03/02 05:43:32;;;;;;;5.00;1.25;;;21.80;46.90;;;;;;4978775;28;20082;-38
2024/03/02 05:45:58;;;;;;;21.00;2.10;;;21.90;47.70;;;;;;4981329;28;20065;-39
2024/03/02 05:48:24;;;;;;;7.63;1.42;;;21.90;48.90;;;;;;4979963;28;20126;-39
2024/03/02 05:50:50;;;;;;;6.20;1.42;;;21.90;48.90;;;;;;5018221;28;20062;-38
2024/03/02 05:53:16;;;;;;;8.15;1.23;;;21.90;49.10;;;;;;5059083;28;20021;-37
2024/03/02 05:55:42;;;;;;;4.45;1.00;;;21.90;49.00;;;;;;5062865;28;20017;-40
2024/03/02 05:58:25;;;;;;;2.72;0.80;;;21.90;48.00;;;;;;5061569;28;20037;-38
2024/03/02 06:00:51;;;;;;;2.35;0.70;;;21.90;47.50;;;;;;5056831;28;20548;-39
2024/03/02 06:03:17;;;;;;;1.60;0.70;;;22.00;47.10;;;;;;5061665;28;20037;-41
2024/03/02 06:05:44;;;;;;;1.25;0.60;;;22.00;46.90;;;;;;5059518;28;20780;-41
2024/03/02 06:08:10;;;;;;;1.15;0.60;;;22.00;47.00;;;;;;5071639;28;20053;-39
2024/03/02 06:10:36;;;;;;;1.10;0.50;;;21.90;46.90;;;;;;5081960;28;20028;-40
2024/03/02 06:13:02;;;;;;;1.75;0.50;;;21.90;46.70;;;;;;5079991;28;20037;-40
2024/03/02 06:15:28;;;;;;;1.15;0.57;;;22.00;46.60;;;;;;5082394;28;20109;-40
2024/03/02 06:17:54;;;;;;;1.33;0.77;;;22.00;46.60;;;;;;5082757;28;20028;-40
2024/03/02 06:20:21;;;;;;;0.93;0.50;;;22.00;46.60;;;;;;5082124;28;20036;-40
2024/03/02 06:22:47;;;;;;;0.85;0.32;;;22.00;46.60;;;;;;5081908;28;20046;-39
2024/03/02 06:25:13;;;;;;;0.60;0.55;;;22.00;46.60;;;;;;5081387;28;20048;-42
2024/03/02 06:27:40;;;;;;;1.05;0.60;;;22.00;46.50;;;;;;5074382;28;20035;-40
2024/03/02 06:30:06;;;;;;;0.60;0.50;;;22.00;46.30;;;;;;5081922;28;20037;-37
2024/03/02 06:32:32;;;;;;;0.50;0.50;;;22.10;46.30;;;;;;5081826;28;20118;-40
2024/03/02 06:34:59;;;;;;;0.45;0.40;;;22.00;46.20;;;;;;5081699;28;20028;-39
2024/03/02 06:37:25;;;;;;;1.00;0.47;;;22.00;46.30;;;;;;5081155;28;20046;-40
2024/03/02 06:39:51;;;;;;;1.23;0.60;;;22.00;46.40;;;;;;5081312;28;20044;-40
2024/03/02 06:42:18;;;;;;;1.60;0.50;;;22.00;46.30;;;;;;5070431;28;20599;-41
2024/03/02 06:44:44;;;;;;;0.70;0.60;;;22.10;46.20;;;;;;5068156;28;20041;-43
2024/03/02 06:47:10;;;;;;;0.60;0.40;;;22.10;46.20;;;;;;5070241;28;20281;-40
2024/03/02 06:49:36;;;;;;;0.57;0.40;;;22.10;46.20;;;;;;5074359;28;20025;-41
2024/03/02 06:52:02;;;;;;;0.80;0.50;;;22.00;46.10;;;;;;5069923;28;20028;-42
2024/03/02 06:54:28;;;;;;;0.68;0.45;;;22.00;46.20;;;;;;5066642;28;20043;-40
2024/03/02 06:56:54;;;;;;;0.57;0.50;;;22.00;46.10;;;;;;5069397;28;20052;-41
2024/03/02 06:59:21;;;;;;;0.93;0.70;;;22.00;46.10;;;;;;5070899;28;20033;-40
2024/03/02 07:01:48;;;;;;;0.60;0.60;;;22.10;46.10;;;;;;5071953;28;20092;-39
2024/03/02 07:04:14;;;;;;;0.50;0.50;;;22.10;46.10;;;;;;5067579;28;20032;-40
2024/03/02 07:06:40;;;;;;;0.60;0.40;;;22.00;46.00;;;;;;5069664;28;20041;-41
2024/03/02 07:09:11;;;;;;;0.88;0.50;;;22.00;46.10;;;;;;5068227;28;20048;-38
2024/03/02 07:11:37;;;;;;;0.50;0.50;;;22.00;46.10;;;;;;5067665;28;20051;-40
2024/03/02 07:14:03;;;;;;;0.60;0.60;;;22.10;46.10;;;;;;5071625;28;20025;-38
2024/03/02 07:16:32;;;;;;;0.70;0.70;;;22.10;46.10;;;;;;5068802;28;20556;-40
2024/03/02 07:18:58;;;;;;;0.90;0.60;;;22.10;46.00;;;;;;5068127;28;20025;-39
2024/03/02 07:21:25;;;;;;;0.63;0.40;;;22.10;46.00;;;;;;5068037;28;20041;-39
2024/03/02 07:23:51;;;;;;;0.75;0.40;;;22.00;46.00;;;;;;5049354;28;20760;-40
2024/03/02 07:26:20;;;;;;;1.33;0.70;;;22.00;46.00;;;;;;5068481;28;20056;-40
2024/03/02 07:28:47;;;;;;;0.68;0.57;;;22.10;46.00;;;;;;5067769;28;20020;-39
2024/03/02 07:31:13;;;;;;;0.80;0.60;;;22.10;45.90;;;;;;5066566;28;20033;-40
2024/03/02 07:33:40;;;;;;;1.45;0.60;;;22.10;45.90;;;;;;5066183;28;20032;-41
2024/03/02 07:36:06;;;;;;;0.80;0.60;;;22.10;45.90;;;;;;5068305;28;20111;-39
2024/03/02 07:38:34;;;;;;;0.40;0.30;;;22.10;45.90;;;;;;5071613;28;20059;-45
2024/03/02 07:41:00;;;;;;;0.60;0.43;;;22.10;45.90;;;;;;5074255;28;20039;-39
2024/03/02 07:43:26;;;;;;;0.90;0.60;;;22.10;45.90;;;;;;5068149;28;20024;-40
2024/03/02 07:45:52;;;;;;;0.47;0.47;;;22.10;45.80;;;;;;5072321;28;20056;-42
2024/03/02 07:48:18;;;;;;;0.40;0.40;;;22.10;45.80;;;;;;5070757;28;20059;-40
2024/03/02 07:50:45;;;;;;;0.60;0.40;;;22.10;45.80;;;;;;5067597;28;20139;-41
2024/03/02 07:53:11;;;;;;;0.80;0.50;;;22.10;45.80;;;;;;5072208;28;20090;-41
2024/03/02 07:55:37;;;;;;;0.70;0.57;;;22.10;45.80;;;;;;5074478;28;20389;-41
2024/03/02 07:58:03;;;;;;;0.50;0.50;;;22.10;45.80;;;;;;5073055;28;20306;-39
2024/03/02 08:00:29;;;;;;;0.43;0.40;;;22.10;45.80;;;;;;5072797;28;20046;-41
2024/03/02 08:02:56;;;;;;;0.98;0.60;;;22.10;45.80;;;;;;5071542;28;20025;-41
2024/03/02 08:05:22;;;;;;;0.30;0.20;;;22.10;45.80;;;;;;5070890;28;20059;-40
2024/03/02 08:08:13;;;;;;;0.55;0.55;;;22.10;45.70;;;;;;5070706;28;20041;-41
2024/03/02 08:10:39;;;;;;;0.40;0.40;;;22.10;45.80;;;;;;5069341;28;20067;-42
2024/03/02 08:13:05;;;;;;;0.60;0.60;;;22.10;45.80;;;;;;5074625;28;20051;-38
2024/03/02 08:15:31;;;;;;;0.40;0.40;;;22.20;45.80;;;;;;5073957;28;20044;-41
2024/03/02 08:17:58;;;;;;;1.00;0.60;;;22.20;45.80;;;;;;5071597;28;20031;-40
2024/03/02 08:20:24;;;;;;;0.63;0.40;;;22.20;45.70;;;;;;5073199;28;20036;-40
2024/03/02 08:22:50;;;;;;;0.60;0.40;;;22.10;45.70;;;;;;5071187;28;20060;-41
2024/03/02 08:25:16;;;;;;;0.57;0.55;;;22.10;45.70;;;;;;5074355;28;20089;-41
2024/03/02 08:27:42;;;;;;;0.93;0.50;;;22.10;45.70;;;;;;5072193;28;20025;-41
2024/03/02 08:30:10;;;;;;;0.50;0.50;;;22.10;45.70;;;;;;5058507;28;20040;-40
2024/03/02 08:32:36;;;;;;;0.70;0.40;;;22.20;45.70;;;;;;5074461;28;20035;-40
2024/03/02 08:35:03;;;;;;;0.60;0.43;;;22.20;45.70;;;;;;5073199;28;20033;-40
2024/03/02 08:37:29;;;;;;;0.60;0.50;;;22.10;45.60;;;;;;5075786;28;20051;-41
2024/03/02 08:39:55;;;;;;;0.95;0.52;;;22.10;45.70;;;;;;5075894;28;20032;-41
2024/03/02 08:42:21;;;;;;;0.80;0.40;;;22.10;45.70;;;;;;5072510;28;20059;-41
2024/03/02 08:44:48;;;;;;;0.50;0.50;;;22.10;45.70;;;;;;5072375;28;20102;-40
2024/03/02 08:47:14;;;;;;;0.60;0.60;;;22.10;45.60;;;;;;5083969;28;20032;-45
2024/03/02 08:49:40;;;;;;;0.65;0.57;;;22.10;45.60;;;;;;5078073;28;20166;-41
2024/03/02 08:52:06;;;;;;;0.50;0.50;;;22.10;45.60;;;;;;5083779;28;20029;-37
2024/03/02 08:54:33;;;;;;;0.63;0.50;;;22.10;45.70;;;;;;5083768;28;20028;-40
2024/03/02 08:57:00;;;;;;;1.05;0.60;;;22.10;45.70;;;;;;5083956;28;20092;-41
2024/03/02 08:59:27;;;;;;;0.43;0.40;;;22.10;45.70;;;;;;5083356;28;20040;-41
2024/03/02 09:01:53;;;;;;;0.75;0.60;;;22.20;45.70;;;;;;5080414;28;20067;-41
2024/03/02 09:04:19;;;;;;;0.98;0.55;;;22.20;45.70;;;;;;5083427;28;20036;-41
2024/03/02 09:06:46;;;;;;;0.50;0.50;;;22.10;45.60;;;;;;5079666;28;20025;-40
2024/03/02 09:09:12;;;;;;;0.88;0.60;;;22.10;45.60;;;;;;5063077;28;20050;-41
2024/03/02 09:11:38;;;;;;;0.88;0.50;;;22.10;45.70;;;;;;5063588;28;20103;-40
2024/03/02 09:14:05;;;;;;;0.68;0.60;;;22.10;45.70;;;;;;5063289;28;20025;-39
2024/03/02 09:16:31;;;;;;;0.50;0.50;;;22.20;45.80;;;;;;5063127;28;20029;-39
2024/03/02 09:18:58;;;;;;;0.80;0.50;;;22.20;45.70;;;;;;5045616;28;20056;-40
2024/03/02 09:21:25;;;;;;;0.70;0.52;;;22.10;45.70;;;;;;5044067;28;20109;-41
2024/03/02 09:23:51;;;;;;;0.90;0.52;;;22.10;45.70;;;;;;5062992;28;20472;-41
2024/03/02 09:26:19;;;;;;;0.75;0.60;;;22.10;45.70;;;;;;5062596;28;20033;-41
2024/03/02 09:28:45;;;;;;;0.52;0.52;;;22.10;45.70;;;;;;5062451;28;20713;-41
2024/03/02 09:31:12;;;;;;;0.80;0.60;;;22.10;45.70;;;;;;5060681;28;20037;-41
2024/03/02 09:33:39;;;;;;;0.40;0.40;;;22.20;45.80;;;;;;5063082;28;20728;-39
2024/03/02 09:36:05;;;;;;;2.58;0.65;;;22.20;45.80;;;;;;5063398;28;20127;-41
2024/03/02 09:38:34;;;;;;;0.88;0.50;;;22.10;45.70;;;;;;5062531;28;20033;-39
2024/03/02 09:41:01;;;;;;;0.82;0.50;;;22.10;45.80;;;;;;5063351;28;20035;-40
2024/03/02 09:43:27;;;;;;;0.90;0.60;;;22.10;45.70;;;;;;5043993;28;20036;-41
2024/03/02 09:45:53;;;;;;;1.23;0.60;;;22.10;45.70;;;;;;5032354;28;20060;-41
2024/03/02 09:48:20;;;;;;;1.40;0.70;;;22.10;45.70;;;;;;5058729;28;20034;-41
2024/03/02 09:50:47;;;;;;;0.65;0.50;;;22.20;45.80;;;;;;5061909;28;20052;-41
2024/03/02 09:53:13;;;;;;;0.68;0.55;;;22.10;45.70;;;;;;5055593;28;20037;-41
2024/03/02 09:55:43;;;;;;;0.60;0.52;;;22.10;45.70;;;;;;5037879;28;20535;-40
2024/03/02 09:58:09;;;;;;;1.83;0.68;;;22.10;45.80;;;;;;5044074;28;20235;-39
2024/03/02 10:00:35;;;;;;;0.80;0.70;;;22.10;45.80;;;;;;5059570;28;20084;-40
2024/03/02 10:03:02;;;;;;;0.60;0.57;;;22.20;45.80;;;;;;5054420;28;20096;-39
2024/03/02 10:05:28;;;;;;;0.63;0.50;;;22.20;45.80;;;;;;5039388;28;20044;-45
2024/03/02 10:08:03;;;;;;;0.80;0.60;;;22.10;45.80;;;;;;5075573;28;20049;-41
2024/03/02 10:10:40;;;;;;;0.70;0.60;;;22.10;45.80;;;;;;5080792;28;20036;-38
2024/03/02 10:13:07;;;;;;;0.90;0.70;;;22.10;45.80;;;;;;5081318;28;20033;-39
2024/03/02 10:15:33;;;;;;;0.50;0.47;;;22.10;45.80;;;;;;5081625;28;20024;-41
2024/03/02 10:18:00;;;;;;;0.55;0.50;;;22.10;45.80;;;;;;5063516;28;20041;-41
2024/03/02 10:20:28;;;;;;;0.50;0.50;;;22.10;45.80;;;;;;5081741;28;20794;-39
2024/03/02 10:22:55;;;;;;;0.77;0.60;;;22.10;45.80;;;;;;5082085;28;20032;-41
2024/03/02 10:25:33;;;;;;;0.50;0.50;;;22.10;45.80;;;;;;5078020;28;20052;-42
2024/03/02 10:27:59;;;;;;;0.60;0.60;;;22.10;45.80;;;;;;5081676;28;20032;-44
2024/03/02 10:30:27;;;;;;;0.95;0.50;;;22.10;45.80;;;;;;5079015;28;20096;-44
2024/03/02 10:32:56;;;;;;;0.50;0.50;;;22.10;45.80;;;;;;5082665;28;20089;-41
2024/03/02 10:35:25;;;;;;;0.60;0.60;;;22.10;45.80;;;;;;5062407;28;20032;-41
2024/03/02 10:37:54;;;;;;;0.65;0.65;;;22.10;45.80;;;;;;5081866;28;20032;-39
2024/03/02 10:40:23;;;;;;;1.23;0.60;;;22.10;46.00;;;;;;5045423;28;20047;-41
2024/03/02 10:42:52;;;;;;;0.80;0.70;;;22.10;45.90;;;;;;5081915;28;21248;-39
2024/03/02 10:45:20;;;;;;;0.50;0.50;;;22.10;46.00;;;;;;5077752;28;20032;-40
2024/03/02 10:47:47;;;;;;;0.43;0.43;;;22.10;45.90;;;;;;5081681;28;20028;-40
2024/03/02 10:50:13;;;;;;;0.60;0.60;;;22.10;45.90;;;;;;5081633;28;20064;-41
2024/03/02 10:52:40;;;;;;;0.70;0.50;;;22.10;45.90;;;;;;5062289;28;20056;-41
2024/03/02 10:55:15;;;;;;;0.63;0.50;;;22.10;46.00;;;;;;5081865;28;20032;-41
2024/03/02 10:57:50;;;;;;;0.50;0.50;;;22.10;46.00;;;;;;5081155;28;20037;-39
2024/03/02 11:00:16;;;;;;;0.60;0.50;;;22.10;46.00;;;;;;5078075;28;20028;-39
2024/03/02 11:02:50;;;;;;;0.40;0.40;;;22.10;46.00;;;;;;5081774;28;20032;-40
2024/03/02 11:05:18;;;;;;;1.30;0.52;;;22.10;45.90;;;;;;5075559;28;20111;-41
2024/03/02 11:07:44;;;;;;;0.50;0.50;;;22.10;46.00;;;;;;5047046;28;20052;-40
2024/03/02 11:10:11;;;;;;;0.50;0.40;;;22.10;46.00;;;;;;5080646;28;20032;-41
2024/03/02 11:12:39;;;;;;;0.93;0.50;;;22.10;46.00;;;;;;5081214;28;20106;-40
2024/03/02 11:15:10;;;;;;;0.45;0.43;;;22.10;46.00;;;;;;5063588;28;20036;-41
2024/03/02 11:17:36;;;;;;;0.63;0.45;;;22.10;46.00;;;;;;5063206;28;20032;-40
2024/03/02 11:20:04;;;;;;;0.50;0.43;;;22.10;46.00;;;;;;5063392;28;20044;-41
2024/03/02 11:22:30;;;;;;;0.60;0.60;;;22.10;46.10;;;;;;5081330;28;20032;-41
2024/03/02 11:24:56;;;;;;;0.82;0.55;;;22.10;46.10;;;;;;5065842;28;20502;-39
2024/03/02 11:27:47;;;;;;;2.38;0.43;;;22.10;46.10;;;;;;5085060;28;20036;-41
2024/03/02 11:30:32;;;;;;;0.60;0.50;;;22.10;46.10;;;;;;5081077;28;20033;-41
2024/03/02 11:32:59;;;;;;;0.68;0.50;;;22.10;46.00;;;;;;5077154;28;20025;-40
2024/03/02 11:35:28;;;;;;;0.32;0.30;;;22.10;46.00;;;;;;5082616;28;20033;-41
2024/03/02 11:37:54;;;;;;;1.60;0.40;;;22.10;46.00;;;;;;5085262;28;20028;-41
2024/03/02 11:40:25;;;;;;;0.53;0.50;;;22.10;46.10;;;;;;5066472;28;20036;-42
2024/03/02 11:42:51;;;;;;;0.47;0.47;;;22.10;46.10;;;;;;5067725;28;20032;-38
2024/03/02 11:45:17;;;;;;;0.40;0.40;;;22.10;46.10;;;;;;5084777;28;20040;-39
2024/03/02 11:47:49;;;;;;;0.63;0.50;;;22.20;46.10;;;;;;5065457;28;20044;-39
2024/03/02 11:50:15;;;;;;;0.40;0.40;;;22.10;46.10;;;;;;5049810;28;20120;-40
2024/03/02 11:52:42;;;;;;;0.60;0.40;;;22.10;46.10;;;;;;5081254;28;20024;-39
2024/03/02 11:55:09;;;;;;;0.52;0.38;;;22.10;46.10;;;;;;5081487;28;20201;-40
2024/03/02 11:57:35;;;;;;;0.77;0.50;;;22.10;46.10;;;;;;5083037;28;20056;-41
2024/03/02 12:03:05;;;;;;;0.50;0.40;;;22.20;46.20;;;;;;5078805;28;20084;-43
2024/03/02 12:05:32;;;;;;;0.70;0.40;;;22.10;46.10;;;;;;5083924;28;20036;-41
2024/03/02 12:08:06;;;;;;;0.55;0.40;;;22.10;46.20;;;;;;5070852;28;20033;-40
2024/03/02 12:10:32;;;;;;;0.45;0.45;;;22.10;46.20;;;;;;5056581;28;20037;-37
2024/03/02 12:13:06;;;;;;;1.63;0.52;;;22.10;46.20;;;;;;5059928;28;20027;-40
2024/03/02 12:15:34;;;;;;;0.40;0.40;;;22.10;46.20;;;;;;5063077;28;20090;-40
2024/03/02 12:18:00;;;;;;;;;;;22.10;46.20;;;;;;5058640;28;20036;-41
2024/03/02 12:20:29;;;;;;;0.90;0.40;;;22.10;46.20;;;;;;5062110;28;20274;-38
2024/03/02 12:22:57;;;;;;;0.90;0.45;;;22.10;46.40;;;;;;5060273;28;20029;-40
2024/03/02 12:25:24;;;;;;;0.50;0.45;;;22.10;46.50;;;;;;5044898;28;20045;-40
2024/03/02 12:27:51;;;;;;;0.73;0.52;;;22.10;46.50;;;;;;5061477;28;20033;-41
2024/03/02 12:30:18;;;;;;;0.80;0.63;;;22.20;46.50;;;;;;5044788;28;20033;-40
2024/03/02 12:32:47;;;;;;;2.13;0.60;;;22.20;46.50;;;;;;5062545;28;20035;-40
2024/03/02 12:35:16;;;;;;;0.90;0.60;;;22.10;46.50;;;;;;5062999;28;20301;-40
2024/03/02 12:37:46;;;;;;;0.73;0.40;;;22.10;46.50;;;;;;5057640;28;20021;-40
2024/03/02 12:40:13;;;;;;;1.35;0.50;;;22.10;46.50;;;;;;5063450;28;20032;-43
2024/03/02 12:42:40;;;;;;;1.83;0.52;;;22.10;46.50;;;;;;5064161;28;20033;-40
2024/03/02 12:45:07;;;;;;;0.75;0.60;;;22.10;46.60;;;;;;5064576;28;20083;-40
2024/03/02 12:47:34;;;;;;;4.43;0.60;;;22.10;46.60;;;;;;5061031;28;20017;-40
2024/03/02 12:50:00;;;;;;;0.73;0.50;;;22.10;46.50;;;;;;5035677;28;20065;-41
2024/03/02 12:52:26;;;;;;;1.00;0.50;;;22.10;46.60;;;;;;5062236;28;20051;-40